Terminal Aerodrome Forecast
Issued by NWS

Home | Current Version | Previous Version | Graphics & Text | Print | Product List | Glossary Off
Versions: 1 2 3 4 5 6 7 8 9 10 11 12 13 14 15 16 17 18 19 20 21 22 23 24 25 26 27 28 29 30 31 32 33 34 35

000
FTUS43 KDDC 281720
TAFGCK
TAF
KGCK 281720Z 2818/0118 16012KT P6SM OVC040
     FM282100 17011KT P6SM OVC009
     FM010200 14007KT P6SM OVC005 PROB30 0105/0111 4SM -SNPL=

USA.gov is the U.S. government's official web portal to all federal, state and local government web resources and services.